Time;durP1;ratioP1;P1;durP2;ratioP2;P2;SDS_P1;SDS_P2;PMS_P1;PMS_P2;Temp;Humidity;BMP_temperature;BMP_pressure;BME280_temperature;BME280_humidity;BME280_pressure;Samples;Min_cycle;Max_cycle;Signal;HPM_P1;HPM_P2
2023/01/07 00:01:06;;;;;;;4.80;2.97;;;;;;;-2.58;55.19;100192.56;1789696;80;21486;-41
2023/01/07 00:03:33;;;;;;;6.45;3.25;;;;;;;-2.58;54.93;100197.35;1789132;80;21020;-40
2023/01/07 00:06:10;;;;;;;4.53;3.00;;;;;;;-2.51;54.52;100195.27;1789241;80;21094;-41
2023/01/07 00:08:39;;;;;;;3.72;2.80;;;;;;;-2.48;54.38;100194.78;1789005;80;20985;-41
2023/01/07 00:11:09;;;;;;;4.40;3.05;;;;;;;-2.48;54.17;100196.11;1789296;80;20994;-40
2023/01/07 00:13:36;;;;;;;5.15;3.20;;;;;;;-2.51;53.27;100200.58;1788900;80;21021;-40
2023/01/07 00:16:10;;;;;;;5.17;3.20;;;;;;;-2.63;53.79;100209.25;1789359;80;20989;-40
2023/01/07 00:18:38;;;;;;;4.67;3.05;;;;;;;-2.67;53.60;100214.79;1789370;80;20956;-40
2023/01/07 00:21:08;;;;;;;5.97;3.20;;;;;;;-2.78;54.00;100211.76;1789289;80;20956;-41
2023/01/07 00:23:36;;;;;;;6.58;3.50;;;;;;;-2.76;53.87;100210.99;1789483;80;20956;-41
2023/01/07 00:26:17;;;;;;;5.55;2.85;;;;;;;-2.78;54.14;100214.41;1789716;80;20968;-40
2023/01/07 00:28:48;;;;;;;4.42;3.00;;;;;;;-2.82;53.71;100215.45;1789217;80;21699;-41
2023/01/07 00:31:22;;;;;;;3.83;2.92;;;;;;;-2.94;53.59;100219.28;1789896;80;21130;-41
2023/01/07 00:34:06;;;;;;;5.75;3.45;;;;;;;-2.97;54.02;100229.07;1789098;80;21506;-41
2023/01/07 00:36:18;;;;;;;5.10;3.02;;;;;;;-2.97;54.14;100235.70;1785271;80;20936;-41
2023/01/07 00:38:45;;;;;;;5.65;3.12;;;;;;;-3.02;53.72;100238.30;1789043;80;21001;-41
2023/01/07 00:41:12;;;;;;;4.15;2.90;;;;;;;-3.14;53.10;100235.25;1790195;80;21056;-40
2023/01/07 00:46:04;;;;;;;3.75;2.95;;;;;;;-3.20;53.73;100224.33;1778919;79;22666;-40
2023/01/07 00:48:31;;;;;;;7.05;3.83;;;;;;;-3.37;53.85;100233.37;1739128;82;20982;-40
2023/01/07 00:50:59;;;;;;;6.80;3.92;;;;;;;-3.49;54.89;100225.56;1739189;82;21195;-39
2023/01/07 00:53:28;;;;;;;7.25;4.30;;;;;;;-3.63;55.80;100235.70;1738943;82;20990;-39
2023/01/07 00:55:55;;;;;;;6.97;4.17;;;;;;;-3.68;56.30;100240.92;1744833;81;20977;-39
2023/01/07 00:58:25;;;;;;;6.37;4.37;;;;;;;-3.74;56.37;100233.98;1757204;81;21586;-40
2023/01/07 01:00:59;;;;;;;8.03;4.28;;;;;;;-3.85;56.52;100238.84;1757071;81;20965;-39
2023/01/07 01:03:29;;;;;;;8.73;4.72;;;;;;;-3.92;56.62;100238.75;1723641;83;21153;-39
2023/01/07 01:06:04;;;;;;;9.93;4.78;;;;;;;-4.06;56.76;100241.70;1723696;83;20977;-40
2023/01/07 01:08:32;;;;;;;9.38;5.03;;;;;;;-4.17;57.09;100251.08;1717390;83;21035;-40
2023/01/07 01:11:06;;;;;;;9.15;5.45;;;;;;;-4.25;57.75;100248.81;1723808;83;20997;-39
2023/01/07 01:13:34;;;;;;;10.28;4.95;;;;;;;-4.23;57.89;100245.41;1723820;83;21059;-40
2023/01/07 01:16:01;;;;;;;6.17;4.05;;;;;;;-4.33;57.92;100246.05;1723555;83;21251;-40
2023/01/07 01:18:27;;;;;;;7.95;5.10;;;;;;;-4.35;58.10;100246.80;1723629;83;20985;-39
2023/01/07 01:20:54;;;;;;;9.73;4.97;;;;;;;-4.33;57.97;100240.76;1723733;83;21597;-39
2023/01/07 01:23:21;;;;;;;9.28;4.87;;;;;;;-4.29;58.05;100239.23;1723836;83;21335;-39
2023/01/07 01:25:49;;;;;;;9.40;4.75;;;;;;;-4.24;57.63;100233.22;1723715;83;20965;-39
2023/01/07 01:28:17;;;;;;;9.78;4.78;;;;;;;-4.26;57.51;100232.12;1723869;83;21339;-40
2023/01/07 01:30:44;;;;;;;9.53;4.72;;;;;;;-4.20;57.59;100235.66;1723705;83;21516;-39
2023/01/07 01:33:10;;;;;;;6.53;4.67;;;;;;;-4.20;57.54;100235.14;1723748;83;20964;-39
2023/01/07 01:35:41;;;;;;;7.00;4.22;;;;;;;-4.15;57.22;100231.77;1723815;83;21880;-40
2023/01/07 01:38:08;;;;;;;7.85;4.45;;;;;;;-4.20;57.03;100228.52;1723751;83;20925;-40
2023/01/07 01:40:35;;;;;;;7.95;4.80;;;;;;;-4.28;57.38;100224.16;1723643;83;21252;-40
2023/01/07 01:43:03;;;;;;;7.53;4.45;;;;;;;-4.32;57.46;100213.77;1723576;83;21082;-39
2023/01/07 01:45:30;;;;;;;9.23;4.67;;;;;;;-4.29;57.75;100210.12;1718321;83;21071;-40
2023/01/07 01:48:04;;;;;;;6.85;4.33;;;;;;;-4.24;56.96;100214.17;1733075;81;20994;-39
2023/01/07 01:50:42;;;;;;;8.55;4.80;;;;;;;-4.24;56.96;100218.14;1752494;81;20990;-40
2023/01/07 01:53:13;;;;;;;7.62;4.40;;;;;;;-4.26;56.79;100220.21;1716062;83;21221;-39
2023/01/07 01:55:46;;;;;;;9.73;5.20;;;;;;;-4.28;57.26;100224.16;1715954;83;21005;-39
2023/01/07 01:58:16;;;;;;;7.58;4.80;;;;;;;-4.42;57.11;100223.67;1715006;83;21028;-40
2023/01/07 02:00:43;;;;;;;8.23;4.62;;;;;;;-4.58;57.52;100223.13;1751778;82;20994;-39
2023/01/07 02:03:17;;;;;;;7.60;4.78;;;;;;;-4.69;57.95;100222.16;1751472;82;21016;-40
2023/01/07 02:05:45;;;;;;;8.65;5.03;;;;;;;-4.76;58.10;100229.97;1751389;82;21189;-40
2023/01/07 02:08:13;;;;;;;8.40;4.80;;;;;;;-4.81;58.54;100222.75;1715538;83;21008;-39
2023/01/07 02:10:41;;;;;;;9.23;5.87;;;;;;;-4.85;58.58;100227.72;1751577;82;26480;-39
2023/01/07 02:13:20;;;;;;;9.50;4.67;;;;;;;-4.89;58.58;100235.81;1687174;83;21044;-40
2023/01/07 02:16:21;;;;;;;7.40;4.80;;;;;;;-4.91;58.43;100228.66;1751227;81;20990;-39
2023/01/07 02:19:05;;;;;;;9.03;4.65;;;;;;;-5.00;58.68;100230.08;1751545;82;21155;-40
2023/01/07 02:21:52;;;;;;;8.30;4.72;;;;;;;-5.12;58.82;100230.63;1709478;81;20981;-40
2023/01/07 02:24:46;;;;;;;8.83;4.62;;;;;;;-5.14;59.05;100229.27;1701716;82;21488;-39
2023/01/07 02:27:35;;;;;;;6.95;4.33;;;;;;;-5.17;59.04;100242.42;1751612;82;20993;-40
2023/01/07 02:30:13;;;;;;;7.65;4.35;;;;;;;-5.18;59.15;100243.48;1750930;81;21045;-39
2023/01/07 02:32:52;;;;;;;4.50;3.25;;;;;;;-5.09;59.00;100238.11;1751054;81;21060;-40
2023/01/07 02:35:40;;;;;;;6.03;3.85;;;;;;;-5.01;58.29;100241.69;1732072;82;21044;-39
2023/01/07 02:38:33;;;;;;;7.67;4.78;;;;;;;-4.98;57.96;100238.56;1748825;81;21479;-40
2023/01/07 02:41:27;;;;;;;5.95;4.15;;;;;;;-4.95;57.13;100242.08;1715236;83;21427;-39
2023/01/07 02:44:15;;;;;;;7.03;4.10;;;;;;;-4.99;57.21;100244.11;1751214;82;21032;-40
2023/01/07 02:47:09;;;;;;;7.03;4.62;;;;;;;-5.01;57.47;100246.98;1717384;83;21269;-39
2023/01/07 02:49:36;;;;;;;8.65;4.50;;;;;;;-4.98;57.22;100247.81;1716939;83;21545;-39
2023/01/07 02:52:25;;;;;;;7.35;4.62;;;;;;;-4.95;57.57;100249.20;1717395;83;20926;-39
2023/01/07 02:55:12;;;;;;;7.78;4.87;;;;;;;-4.94;57.30;100242.33;1717290;83;20968;-40
2023/01/07 02:58:19;;;;;;;11.63;5.62;;;;;;;-5.02;57.18;100242.72;1709046;83;21009;-39
2023/01/07 03:00:53;;;;;;;9.55;5.37;;;;;;;-4.98;57.57;100238.56;1717140;83;23173;-39
2023/01/07 03:03:49;;;;;;;11.57;6.10;;;;;;;-4.92;57.20;100241.59;1717613;83;21020;-40
2023/01/07 03:06:51;;;;;;;10.63;5.97;;;;;;;-4.84;57.34;100243.84;1717326;83;21054;-39
2023/01/07 03:09:44;;;;;;;11.57;6.30;;;;;;;-4.78;57.21;100247.39;1717527;83;21167;-39
2023/01/07 03:12:16;;;;;;;9.40;5.90;;;;;;;-4.77;56.49;100237.61;1717398;83;21028;-39
2023/01/07 03:15:08;;;;;;;14.25;6.90;;;;;;;-4.82;56.78;100233.84;1717256;83;23126;-39
2023/01/07 03:17:55;;;;;;;13.85;7.50;;;;;;;-4.83;56.81;100243.33;1717254;83;21003;-39
2023/01/07 03:20:24;;;;;;;12.78;7.03;;;;;;;-4.84;57.01;100249.13;1717343;83;20953;-40
2023/01/07 03:22:52;;;;;;;10.90;6.58;;;;;;;-4.82;57.35;100256.33;1717347;83;20930;-40
2023/01/07 03:25:20;;;;;;;12.40;7.28;;;;;;;-4.79;57.20;100257.68;1717270;83;21076;-40
2023/01/07 03:27:48;;;;;;;12.88;6.90;;;;;;;-4.70;57.53;100253.64;1717263;83;21789;-39
2023/01/07 03:30:16;;;;;;;13.25;6.62;;;;;;;-4.56;57.22;100255.46;1689170;83;20933;-40
2023/01/07 03:33:00;;;;;;;14.90;7.05;;;;;;;-4.54;57.01;100253.36;1717402;83;20997;-39
2023/01/07 03:35:29;;;;;;;12.20;6.53;;;;;;;-4.51;56.92;100256.88;1717459;83;21597;-39
2023/01/07 03:37:56;;;;;;;11.15;6.20;;;;;;;-4.62;56.96;100257.21;1717343;83;21040;-40
2023/01/07 03:40:22;;;;;;;11.20;6.20;;;;;;;-4.72;57.18;100260.99;1717402;83;21150;-39
2023/01/07 03:42:49;;;;;;;8.83;5.10;;;;;;;-4.76;57.18;100259.06;1688974;83;21493;-40
2023/01/07 03:45:21;;;;;;;10.40;5.70;;;;;;;-4.79;57.44;100259.55;1728129;81;21008;-40
2023/01/07 03:47:50;;;;;;;11.70;5.62;;;;;;;-4.85;57.54;100258.13;1720548;83;20969;-39
2023/01/07 03:50:18;;;;;;;9.45;5.58;;;;;;;-4.99;57.76;100248.88;1720898;83;21048;-39
2023/01/07 03:52:47;;;;;;;9.60;5.70;;;;;;;-5.07;58.10;100251.06;1720797;83;21085;-39
2023/01/07 03:55:16;;;;;;;8.88;5.25;;;;;;;-5.07;58.25;100243.95;1720739;83;20980;-39
2023/01/07 03:57:43;;;;;;;9.98;5.35;;;;;;;-5.11;58.86;100236.20;1720914;83;21028;-39
2023/01/07 04:00:12;;;;;;;9.10;5.08;;;;;;;-5.08;59.15;100241.55;1720692;83;21394;-39
2023/01/07 04:02:42;;;;;;;8.05;5.20;;;;;;;-5.05;59.09;100240.56;1720713;83;21490;-39
2023/01/07 04:05:11;;;;;;;8.18;5.03;;;;;;;-5.01;58.98;100240.36;1719887;83;21258;-40
2023/01/07 04:07:38;;;;;;;9.33;5.75;;;;;;;-4.99;58.76;100233.02;1720535;83;21537;-40
2023/01/07 04:10:08;;;;;;;9.10;5.30;;;;;;;-5.01;58.72;100236.91;1720674;83;21019;-40
2023/01/07 04:12:36;;;;;;;9.58;5.58;;;;;;;-5.04;58.57;100242.17;1720575;83;21574;-40
2023/01/07 04:15:04;;;;;;;8.23;5.35;;;;;;;-5.05;58.64;100242.39;1720734;83;20997;-40
2023/01/07 04:17:32;;;;;;;8.95;5.30;;;;;;;-5.16;58.83;100238.75;1694663;83;21107;-40
2023/01/07 04:19:58;;;;;;;10.78;5.45;;;;;;;-5.17;59.03;100245.06;1720587;83;21079;-39
2023/01/07 04:22:27;;;;;;;7.72;4.55;;;;;;;-5.19;59.09;100246.35;1720732;83;21000;-40
2023/01/07 04:24:54;;;;;;;9.18;5.75;;;;;;;-5.17;59.44;100247.71;1720450;83;21024;-40
2023/01/07 04:27:22;;;;;;;10.50;5.53;;;;;;;-5.02;59.26;100253.30;1720798;83;21498;-40
2023/01/07 04:29:49;;;;;;;9.50;5.28;;;;;;;-4.96;59.60;100254.20;1720433;83;21248;-40
2023/01/07 04:32:16;;;;;;;10.48;5.60;;;;;;;-4.87;59.29;100262.84;1720536;83;20922;-40
2023/01/07 04:34:43;;;;;;;8.90;5.00;;;;;;;-4.91;58.90;100262.23;1720707;83;20889;-40
2023/01/07 04:37:12;;;;;;;8.05;5.05;;;;;;;-4.93;58.48;100251.07;1720565;83;20929;-40
2023/01/07 04:39:38;;;;;;;8.23;5.45;;;;;;;-5.03;58.71;100254.84;1720739;83;21031;-40
2023/01/07 04:42:06;;;;;;;9.65;5.22;;;;;;;-5.07;58.81;100258.48;1720736;83;21151;-40
2023/01/07 04:44:33;;;;;;;11.03;6.05;;;;;;;-5.13;58.98;100252.80;1720657;83;20937;-40
2023/01/07 04:47:00;;;;;;;10.45;5.70;;;;;;;-5.25;59.33;100244.13;1716255;83;21021;-40
2023/01/07 04:49:27;;;;;;;9.83;6.40;;;;;;;-5.27;59.36;100260.72;1751486;81;21586;-40
2023/01/07 04:51:53;;;;;;;10.60;5.92;;;;;;;-5.30;59.77;100255.91;1715238;83;20989;-40
2023/01/07 04:54:21;;;;;;;11.48;6.47;;;;;;;-5.33;60.01;100256.39;1751405;81;21137;-40
2023/01/07 04:56:48;;;;;;;13.72;6.60;;;;;;;-5.31;60.04;100259.59;1715126;83;20981;-40
2023/01/07 04:59:15;;;;;;;12.65;6.50;;;;;;;-5.29;60.15;100268.09;1715434;83;20981;-40
2023/01/07 05:01:43;;;;;;;13.53;7.30;;;;;;;-5.32;60.19;100267.22;1751105;82;20966;-40
2023/01/07 05:04:10;;;;;;;13.38;6.45;;;;;;;-5.35;60.35;100270.34;1715125;83;21323;-40
2023/01/07 05:06:37;;;;;;;13.32;6.50;;;;;;;-5.34;60.54;100267.99;1751121;82;21183;-40
2023/01/07 05:09:04;;;;;;;14.07;6.78;;;;;;;-5.39;60.59;100266.05;1751377;81;20972;-40
2023/01/07 05:11:33;;;;;;;12.55;7.37;;;;;;;-5.37;61.31;100271.08;1715257;83;20937;-40
2023/01/07 05:14:00;;;;;;;11.12;6.80;;;;;;;-5.27;60.95;100272.09;1751192;81;21013;-40
2023/01/07 05:16:29;;;;;;;11.93;6.87;;;;;;;-5.24;60.02;100275.33;1751353;82;21064;-40
2023/01/07 05:18:57;;;;;;;13.45;6.62;;;;;;;-5.30;59.88;100273.09;1715106;83;21249;-39
2023/01/07 05:21:24;;;;;;;11.08;6.65;;;;;;;-5.31;59.78;100267.00;1751333;82;21525;-40
2023/01/07 05:23:52;;;;;;;13.68;6.58;;;;;;;-5.28;59.61;100271.03;1751248;82;21021;-40
2023/01/07 05:26:20;;;;;;;13.30;6.90;;;;;;;-5.29;59.66;100277.34;1751261;82;20972;-40
2023/01/07 05:28:48;;;;;;;11.12;6.40;;;;;;;-5.26;59.42;100285.61;1751481;81;21046;-40
2023/01/07 05:31:15;;;;;;;12.20;6.97;;;;;;;-5.26;59.34;100288.77;1715257;83;23186;-40
2023/01/07 05:33:43;;;;;;;11.45;6.35;;;;;;;-5.31;59.37;100288.14;1751535;81;21494;-40
2023/01/07 05:36:12;;;;;;;12.20;6.50;;;;;;;-5.35;59.78;100294.93;1715518;83;20893;-40
2023/01/07 05:38:38;;;;;;;14.53;6.97;;;;;;;-5.33;59.69;100298.16;1715303;83;21613;-40
2023/01/07 05:41:07;;;;;;;14.33;6.87;;;;;;;-5.34;59.40;100296.55;1751417;82;21021;-40
2023/01/07 05:43:35;;;;;;;10.10;5.70;;;;;;;-5.33;59.77;100310.05;1751435;82;21724;-40
2023/01/07 05:46:01;;;;;;;15.28;7.28;;;;;;;-5.27;59.82;100310.94;1748707;82;21437;-40
2023/01/07 05:48:28;;;;;;;14.45;6.85;;;;;;;-5.28;59.87;100302.75;1707637;84;21076;-40
2023/01/07 05:50:55;;;;;;;13.62;7.50;;;;;;;-5.26;59.79;100308.07;1707858;84;21573;-40
2023/01/07 05:53:22;;;;;;;12.95;7.62;;;;;;;-5.29;59.93;100313.02;1707519;84;22163;-40
2023/01/07 05:55:48;;;;;;;10.98;6.55;;;;;;;-5.32;59.61;100308.98;1707578;84;21249;-40
2023/01/07 05:58:16;;;;;;;11.93;6.40;;;;;;;-5.36;59.12;100315.78;1707612;84;21048;-40
2023/01/07 06:00:43;;;;;;;13.22;7.17;;;;;;;-5.45;59.35;100317.17;1743477;82;21504;-40
2023/01/07 06:03:10;;;;;;;10.70;6.65;;;;;;;-5.54;59.28;100317.75;1707526;83;21609;-40
2023/01/07 06:05:38;;;;;;;12.15;7.37;;;;;;;-5.54;59.27;100320.39;1743348;81;20914;-39
2023/01/07 06:08:05;;;;;;;16.97;7.65;;;;;;;-5.57;60.04;100328.80;1707904;84;21506;-39
2023/01/07 06:10:32;;;;;;;11.68;7.05;;;;;;;-5.57;59.62;100323.51;1743553;81;21522;-40
2023/01/07 06:12:58;;;;;;;12.18;7.30;;;;;;;-5.51;59.68;100328.66;1707695;84;21065;-40
2023/01/07 06:15:25;;;;;;;12.33;7.25;;;;;;;-5.49;59.71;100328.44;1707819;84;21036;-40
2023/01/07 06:17:52;;;;;;;16.97;7.55;;;;;;;-5.46;59.29;100329.28;1743582;82;21004;-40
2023/01/07 06:20:18;;;;;;;17.02;7.60;;;;;;;-5.43;59.51;100328.84;1702691;83;21312;-40
2023/01/07 06:22:45;;;;;;;12.70;7.45;;;;;;;-5.46;59.24;100339.34;1743758;81;21009;-40
2023/01/07 06:25:12;;;;;;;13.50;8.00;;;;;;;-5.48;59.61;100332.69;1743420;82;21021;-40
2023/01/07 06:27:42;;;;;;;16.23;7.53;;;;;;;-5.45;59.46;100342.78;1743311;81;21088;-39
2023/01/07 06:30:10;;;;;;;14.20;8.18;;;;;;;-5.46;59.36;100342.49;1707907;83;21084;-40
2023/01/07 06:32:42;;;;;;;11.88;6.40;;;;;;;-5.48;59.62;100345.91;1743817;82;21487;-40
2023/01/07 06:35:10;;;;;;;13.20;7.83;;;;;;;-5.51;59.81;100356.91;1707601;83;21017;-40
2023/01/07 06:37:37;;;;;;;13.53;7.67;;;;;;;-5.47;59.96;100367.33;1707924;84;21021;-40
2023/01/07 06:40:06;;;;;;;15.50;8.00;;;;;;;-5.46;60.21;100368.91;1743338;81;20954;-39
2023/01/07 06:42:33;;;;;;;12.63;7.60;;;;;;;-5.43;60.24;100369.80;1744118;82;21018;-40
2023/01/07 06:44:59;;;;;;;16.20;8.98;;;;;;;-5.37;60.07;100371.49;1743301;81;21758;-40
2023/01/07 06:47:26;;;;;;;14.25;8.88;;;;;;;-5.34;59.72;100378.98;1743200;82;21449;-40
2023/01/07 06:49:53;;;;;;;18.37;9.50;;;;;;;-5.35;59.79;100377.37;1707615;84;21480;-40
2023/01/07 06:52:20;;;;;;;16.35;9.05;;;;;;;-5.32;59.67;100384.31;1743292;82;21026;-40
2023/01/07 06:54:47;;;;;;;17.35;9.28;;;;;;;-5.35;60.08;100387.94;1743535;82;21038;-40
2023/01/07 06:57:14;;;;;;;17.80;9.23;;;;;;;-5.35;59.87;100389.26;1743597;81;21163;-40
2023/01/07 06:59:41;;;;;;;15.20;8.85;;;;;;;-5.34;59.89;100389.55;1743419;81;20973;-40
2023/01/07 07:02:18;;;;;;;16.20;8.93;;;;;;;-5.29;60.22;100392.31;1743558;81;20926;-40
2023/01/07 07:04:45;;;;;;;14.93;9.08;;;;;;;-5.21;59.49;100397.23;1742896;81;21087;-40
2023/01/07 07:07:12;;;;;;;15.93;8.95;;;;;;;-5.26;59.34;100394.48;1743384;81;21096;-40
2023/01/07 07:09:40;;;;;;;18.75;10.43;;;;;;;-5.24;59.32;100409.61;1701446;82;21254;-39
2023/01/07 07:12:07;;;;;;;17.95;9.75;;;;;;;-5.22;59.45;100410.16;1682082;85;21614;-39
2023/01/07 07:14:34;;;;;;;16.48;9.63;;;;;;;-5.30;59.13;100415.29;1681999;85;21492;-40
2023/01/07 07:17:01;;;;;;;19.60;9.90;;;;;;;-5.26;59.13;100423.55;1681962;85;21061;-40
2023/01/07 07:19:27;;;;;;;17.52;9.80;;;;;;;-5.27;59.26;100420.10;1699833;84;21064;-39
2023/01/07 07:21:55;;;;;;;16.70;9.45;;;;;;;-5.24;59.39;100427.30;1694938;84;21208;-40
2023/01/07 07:24:23;;;;;;;21.25;9.75;;;;;;;-5.20;59.43;100427.92;1694808;84;21045;-39
2023/01/07 07:26:50;;;;;;;17.87;9.28;;;;;;;-5.16;59.50;100425.11;1694962;84;21048;-40
2023/01/07 07:29:17;;;;;;;17.80;9.75;;;;;;;-5.17;58.98;100430.61;1695055;84;21081;-39
2023/01/07 07:31:43;;;;;;;18.00;9.15;;;;;;;-5.10;59.21;100428.16;1695002;84;21014;-40
2023/01/07 07:34:10;;;;;;;16.75;9.68;;;;;;;-5.07;59.47;100432.16;1695094;84;21248;-40
2023/01/07 07:36:38;;;;;;;17.87;10.32;;;;;;;-5.01;59.30;100432.06;1695018;84;20954;-40
2023/01/07 07:39:04;;;;;;;17.95;9.88;;;;;;;-4.95;58.86;100432.47;1695211;84;21553;-39
2023/01/07 07:41:32;;;;;;;17.52;9.78;;;;;;;-4.99;58.33;100430.00;1695019;84;21579;-40
2023/01/07 07:43:59;;;;;;;18.20;10.30;;;;;;;-5.03;58.56;100438.08;1694930;84;21072;-40
2023/01/07 07:46:26;;;;;;;15.32;9.85;;;;;;;-4.96;58.80;100436.66;1694747;83;21256;-40
2023/01/07 07:48:53;;;;;;;17.95;10.63;;;;;;;-4.96;58.56;100437.45;1694802;84;21081;-40
2023/01/07 07:51:20;;;;;;;18.80;10.08;;;;;;;-4.94;58.83;100432.73;1694948;84;21069;-39
2023/01/07 07:53:47;;;;;;;14.85;8.93;;;;;;;-4.82;59.17;100437.50;1694822;84;21571;-40
2023/01/07 07:56:13;;;;;;;15.32;9.38;;;;;;;-4.77;58.15;100439.45;1694960;84;21088;-40
2023/01/07 07:58:41;;;;;;;11.93;7.05;;;;;;;-4.82;57.99;100440.14;1694945;84;21167;-40
2023/01/07 08:01:09;;;;;;;16.15;7.70;;;;;;;-4.80;57.78;100443.08;1695055;84;21045;-40
2023/01/07 08:03:36;;;;;;;11.43;7.60;;;;;;;-4.84;57.95;100448.01;1694928;84;20989;-39
2023/01/07 11:33:05;;;;;;;18.57;11.83;;;;;;;-4.41;59.91;100460.84;1755786;80;22105;-39
2023/01/07 11:35:31;;;;;;;18.82;11.97;;;;;;;-4.26;58.39;100465.08;1762692;81;20920;-39
2023/01/07 11:37:59;;;;;;;20.65;11.25;;;;;;;-4.26;58.50;100458.47;1758642;81;22139;-39
2023/01/07 11:40:31;;;;;;;16.48;10.38;;;;;;;-4.14;58.16;100456.59;1728462;83;20986;-39
2023/01/07 11:43:03;;;;;;;20.65;11.70;;;;;;;-4.05;58.11;100465.77;1758789;81;20919;-40
2023/01/07 11:45:35;;;;;;;16.00;10.30;;;;;;;-4.08;57.07;100460.95;1728755;83;21496;-39
2023/01/07 11:48:09;;;;;;;22.37;10.75;;;;;;;-4.19;57.09;100461.80;1758709;81;20923;-39
2023/01/07 11:50:41;;;;;;;21.77;11.35;;;;;;;-4.19;57.38;100461.80;1728874;82;21755;-39
2023/01/07 11:53:16;;;;;;;20.95;11.03;;;;;;;-4.13;57.19;100471.45;1797236;78;20923;-39
2023/01/07 11:56:05;;;;;;;19.25;11.70;;;;;;;-4.15;57.05;100460.28;1822371;78;21003;-39
2023/01/07 11:58:44;;;;;;;14.37;8.83;;;;;;;-4.11;56.34;100457.95;1822770;78;21439;-40
2023/01/07 12:01:17;;;;;;;21.45;11.80;;;;;;;-4.10;56.51;100461.70;1822422;78;21079;-39
2023/01/07 12:03:55;;;;;;;19.98;11.78;;;;;;;-4.05;56.56;100460.47;1822366;78;21787;-40
2023/01/07 12:06:33;;;;;;;23.10;10.53;;;;;;;-3.95;56.04;100451.91;1819742;78;20984;-40
2023/01/07 12:09:27;;;;;;;21.37;11.35;;;;;;;-3.87;56.34;100451.52;1822418;78;21011;-41
2023/01/07 12:11:57;;;;;;;18.92;10.93;;;;;;;-3.79;56.27;100451.66;1822281;78;21542;-40
2023/01/07 12:14:28;;;;;;;20.23;10.45;;;;;;;-3.70;56.12;100452.36;1822339;78;26914;-40
2023/01/07 12:16:56;;;;;;;23.47;10.98;;;;;;;-3.59;55.42;100453.34;1822304;78;23125;-40
2023/01/07 12:19:58;;;;;;;25.30;12.25;;;;;;;-3.54;55.46;100448.13;1822102;78;20971;-40
2023/01/07 12:22:59;;;;;;;21.70;12.60;;;;;;;-3.43;55.43;100436.63;1822083;78;21511;-39
2023/01/07 12:25:37;;;;;;;23.40;14.03;;;;;;;-3.41;54.98;100427.92;1822340;78;20941;-40
2023/01/07 12:28:21;;;;;;;24.35;12.13;;;;;;;-3.53;55.05;100435.94;1816240;78;21267;-40
2023/01/07 12:30:59;;;;;;;25.72;12.40;;;;;;;-3.59;55.07;100436.12;1822256;78;21200;-40
2023/01/07 12:33:52;;;;;;;28.25;13.98;;;;;;;-3.58;55.12;100433.73;1806418;78;20980;-40
2023/01/07 12:36:31;;;;;;;19.42;11.30;;;;;;;-3.59;55.19;100434.80;1821764;78;20999;-40
2023/01/07 12:39:01;;;;;;;26.23;12.13;;;;;;;-3.71;55.16;100440.16;1821617;78;21028;-39
2023/01/07 12:41:32;;;;;;;24.82;13.08;;;;;;;-3.74;55.17;100451.75;1821784;78;21012;-40
2023/01/07 12:44:19;;;;;;;20.40;11.33;;;;;;;-3.79;55.42;100451.66;1821708;78;21762;-40
2023/01/07 12:46:57;;;;;;;22.37;12.13;;;;;;;-3.90;55.22;100448.55;1821433;78;21450;-40
2023/01/07 12:49:31;;;;;;;19.67;11.83;;;;;;;-4.02;56.05;100453.37;1821794;78;20984;-39
2023/01/07 12:52:07;;;;;;;17.30;10.82;;;;;;;-3.97;55.96;100448.16;1821550;78;20996;-40
2023/01/07 12:54:45;;;;;;;19.42;11.48;;;;;;;-3.97;55.95;100452.69;1821896;78;20973;-39
2023/01/07 12:57:22;;;;;;;24.55;12.13;;;;;;;-3.95;56.10;100459.85;1822009;78;21773;-39
2023/01/07 13:00:21;;;;;;;19.02;11.18;;;;;;;-3.90;55.96;100453.84;1821704;78;21479;-40
2023/01/07 13:03:25;;;;;;;16.65;9.65;;;;;;;-3.87;55.73;100456.81;1822196;78;21187;-40
2023/01/07 13:05:57;;;;;;;18.62;11.38;;;;;;;-3.90;55.40;100456.49;1821352;78;21497;-40
2023/01/07 13:08:48;;;;;;;21.20;11.28;;;;;;;-3.98;55.12;100458.50;1822001;78;21063;-40
2023/01/07 13:12:41;;;;;;;19.35;11.20;;;;;;;-4.06;55.49;100465.48;1821634;78;21200;-39
2023/01/07 13:13:51;;;;;;;18.07;10.68;;;;;;;-4.14;55.57;100463.22;1817251;78;21015;-39
2023/01/07 13:16:17;;;;;;;17.42;10.05;;;;;;;-4.14;55.64;100473.80;1818786;78;20952;-39
2023/01/07 13:18:44;;;;;;;18.65;10.53;;;;;;;-4.06;55.87;100480.05;1821644;78;21505;-40
2023/01/07 13:21:13;;;;;;;17.60;10.43;;;;;;;-3.92;55.63;100485.08;1821616;78;20988;-40
2023/01/07 13:24:19;;;;;;;22.75;10.50;;;;;;;-3.80;55.45;100481.84;1821520;78;21920;-40
2023/01/07 13:27:16;;;;;;;20.77;11.18;;;;;;;-3.71;55.39;100485.71;1821571;78;20956;-40
2023/01/07 13:30:15;;;;;;;20.82;11.93;;;;;;;-3.70;54.58;100480.70;1821991;78;21076;-40
2023/01/07 13:33:12;;;;;;;18.55;10.43;;;;;;;-3.80;54.72;100486.62;1823341;78;21091;-40
2023/01/07 13:36:03;;;;;;;22.62;12.25;;;;;;;-3.89;54.71;100483.27;1824622;78;21035;-40
2023/01/07 13:39:08;;;;;;;19.48;11.45;;;;;;;-4.02;55.14;100493.64;1824520;78;21222;-40
2023/01/07 13:42:18;;;;;;;20.62;11.73;;;;;;;-4.09;55.68;100498.25;1824774;78;20969;-40
2023/01/07 13:45:09;;;;;;;21.85;11.25;;;;;;;-4.12;55.66;100498.22;1800284;78;21529;-40
2023/01/07 13:47:50;;;;;;;22.52;10.93;;;;;;;-4.17;55.34;100502.61;1824629;78;21017;-40
2023/01/07 13:50:24;;;;;;;20.43;11.22;;;;;;;-4.18;55.74;100503.12;1812830;78;21011;-40
2023/01/07 13:53:03;;;;;;;23.98;11.95;;;;;;;-4.11;55.83;100500.32;1824759;78;21199;-41
2023/01/07 13:55:38;;;;;;;23.73;11.60;;;;;;;-4.09;55.39;100500.39;1824517;78;21258;-41
2023/01/07 13:58:30;;;;;;;21.40;11.20;;;;;;;-4.15;55.22;100500.00;1822808;78;21027;-40
2023/01/07 14:01:08;;;;;;;20.62;11.53;;;;;;;-4.19;55.07;100497.53;1818260;78;21131;-41
2023/01/07 14:03:42;;;;;;;24.23;11.53;;;;;;;-4.26;55.55;100505.34;1824437;78;21032;-41
2023/01/07 14:06:23;;;;;;;21.65;12.18;;;;;;;-4.31;55.48;100504.72;1824667;78;21098;-41
2023/01/07 14:09:14;;;;;;;20.88;11.28;;;;;;;-4.34;55.21;100507.81;1815280;78;21471;-40
2023/01/07 14:12:39;;;;;;;20.40;11.75;;;;;;;-4.35;55.38;100510.17;1824297;78;20972;-40
2023/01/07 14:15:39;;;;;;;20.85;11.55;;;;;;;-4.44;55.42;100519.52;1824498;78;21021;-41
2023/01/07 14:18:50;;;;;;;22.05;12.20;;;;;;;-4.54;56.00;100516.64;1824614;78;20980;-41
2023/01/07 14:21:28;;;;;;;19.73;12.07;;;;;;;-4.56;56.20;100518.22;1824549;78;23162;-41
2023/01/07 14:24:06;;;;;;;20.60;11.73;;;;;;;-4.54;56.00;100514.81;1824619;78;21497;-40
2023/01/07 14:26:42;;;;;;;16.05;9.58;;;;;;;-4.54;56.01;100520.62;1786044;78;20917;-41
2023/01/07 14:29:23;;;;;;;18.40;10.55;;;;;;;-4.57;56.08;100530.35;1824374;78;20995;-41
2023/01/07 14:31:50;;;;;;;21.15;12.50;;;;;;;-4.56;56.43;100535.94;1823305;78;21044;-41
2023/01/07 14:34:24;;;;;;;18.92;11.50;;;;;;;-4.49;56.52;100532.63;1824444;78;21534;-41
2023/01/07 14:37:11;;;;;;;24.65;12.20;;;;;;;-4.44;56.59;100534.88;1824029;78;20956;-41
2023/01/07 14:39:44;;;;;;;20.12;10.95;;;;;;;-4.40;55.73;100541.31;1823988;78;21528;-41
2023/01/07 14:42:42;;;;;;;20.57;11.63;;;;;;;-4.50;55.67;100537.12;1824403;78;20999;-41
2023/01/07 14:45:40;;;;;;;20.45;11.63;;;;;;;-4.60;55.69;100540.09;1824765;78;21533;-40
2023/01/07 14:48:15;;;;;;;22.50;12.58;;;;;;;-4.76;56.10;100539.45;1824637;78;21235;-41
2023/01/07 14:50:53;;;;;;;22.80;12.93;;;;;;;-4.95;56.63;100531.63;1824480;78;20913;-42
2023/01/07 14:53:48;;;;;;;26.57;13.58;;;;;;;-5.06;57.29;100534.25;1824665;78;21015;-39
2023/01/07 14:57:08;;;;;;;22.27;11.63;;;;;;;-5.14;57.32;100534.59;1824777;78;20893;-40
2023/01/07 15:00:30;;;;;;;24.85;13.38;;;;;;;-5.28;57.64;100544.57;1824531;78;21001;-40
2023/01/07 15:03:17;;;;;;;21.05;11.88;;;;;;;-5.38;58.32;100541.67;1824381;78;23162;-40
2023/01/07 15:06:01;;;;;;;21.37;11.40;;;;;;;-5.38;58.39;100540.35;1824402;78;20996;-40
2023/01/07 15:17:22;;;;;;;22.70;12.23;;;;;;;-5.51;58.67;100558.50;1824404;78;21175;-40
2023/01/07 15:19:50;;;;;;;19.90;10.40;;;;;;;-5.53;58.72;100555.81;1824183;78;20972;-40
2023/01/07 15:22:43;;;;;;;23.32;11.33;;;;;;;-5.52;58.83;100553.47;1824352;78;20987;-40
2023/01/07 15:25:33;;;;;;;21.85;11.35;;;;;;;-5.60;58.83;100556.41;1824125;78;21365;-40
2023/01/07 15:28:38;;;;;;;20.12;11.38;;;;;;;-5.62;58.97;100551.88;1824211;78;21043;-40